createdAt,value
2023-03-11T00:00:58.887Z,1.40
2023-03-11T00:04:03.642Z,1.08
2023-03-11T00:07:10.051Z,1.40
2023-03-11T00:10:30.593Z,1.20
2023-03-11T00:13:37.030Z,1.25
2023-03-11T00:16:41.602Z,1.00
2023-03-11T00:19:46.955Z,1.30
2023-03-11T00:22:51.706Z,1.20
2023-03-11T00:25:56.785Z,0.90
2023-03-11T00:29:01.528Z,1.20
2023-03-11T00:32:06.342Z,0.90
2023-03-11T00:35:14.177Z,1.67
2023-03-11T00:38:19.483Z,1.30
2023-03-11T00:41:24.704Z,1.75
2023-03-11T00:44:29.547Z,0.80
2023-03-11T00:47:35.349Z,0.90
2023-03-11T00:50:40.511Z,0.80
2023-03-11T00:53:45.983Z,1.00
2023-03-11T00:56:50.569Z,0.85
2023-03-11T00:59:55.932Z,0.85
2023-03-11T01:03:02.760Z,0.85
2023-03-11T01:06:08.616Z,0.80
2023-03-11T01:09:13.380Z,0.70
2023-03-11T01:12:18.115Z,0.75
2023-03-11T01:15:29.467Z,0.57
2023-03-11T01:18:34.200Z,1.10
2023-03-11T01:21:39.034Z,0.70
2023-03-11T01:24:45.046Z,0.60
2023-03-11T01:27:49.904Z,0.80
2023-03-11T01:30:54.652Z,0.80
2023-03-11T01:33:59.221Z,0.60
2023-03-11T01:37:04.757Z,0.60
2023-03-11T01:40:15.359Z,0.90
2023-03-11T01:43:44.666Z,0.60
2023-03-11T01:46:52.393Z,0.70
2023-03-11T01:50:01.670Z,0.50
2023-03-11T01:53:07.597Z,0.40
2023-03-11T01:56:13.656Z,0.43
2023-03-11T01:59:26.398Z,0.40
2023-03-11T02:02:40.538Z,0.50
2023-03-11T02:05:47.377Z,0.40
2023-03-11T02:08:51.949Z,0.45
2023-03-11T02:11:58.700Z,0.40
2023-03-11T02:15:06.923Z,0.40
2023-03-11T02:18:14.729Z,0.47
2023-03-11T02:21:30.093Z,0.40
2023-03-11T02:24:50.932Z,0.30
2023-03-11T02:27:56.440Z,0.40
2023-03-11T02:31:03.838Z,0.30
2023-03-11T02:34:16.340Z,0.38
2023-03-11T02:37:22.102Z,0.40
2023-03-11T02:40:39.982Z,0.30
2023-03-11T02:43:46.593Z,0.40
2023-03-11T02:46:53.986Z,0.32
2023-03-11T02:50:00.135Z,0.40
2023-03-11T02:53:07.463Z,0.30
2023-03-11T02:56:12.185Z,0.30
2023-03-11T02:59:17.404Z,0.40
2023-03-11T03:02:22.419Z,0.50
2023-03-11T03:05:27.440Z,0.50
2023-03-11T03:08:32.265Z,0.50
2023-03-11T03:11:37.327Z,0.38
2023-03-11T03:14:42.106Z,0.45
2023-03-11T03:17:47.957Z,0.43
2023-03-11T03:20:53.117Z,0.40
2023-03-11T03:23:58.019Z,0.50
2023-03-11T03:27:02.850Z,0.40
2023-03-11T03:30:09.689Z,0.50
2023-03-11T03:33:15.818Z,0.63
2023-03-11T03:36:21.567Z,0.50
2023-03-11T03:39:33.052Z,0.60
2023-03-11T03:42:38.926Z,0.50
2023-03-11T03:45:44.193Z,0.52
2023-03-11T03:48:48.986Z,0.65
2023-03-11T03:51:53.808Z,0.40
2023-03-11T03:55:06.361Z,0.60
2023-03-11T03:58:11.249Z,0.60
2023-03-11T04:01:16.476Z,0.60
2023-03-11T04:04:21.110Z,0.98
2023-03-11T04:07:26.104Z,0.63
2023-03-11T04:10:30.722Z,0.73
2023-03-11T04:13:37.467Z,0.70
2023-03-11T04:16:43.299Z,0.65
2023-03-11T04:19:50.143Z,0.70
2023-03-11T04:22:54.978Z,0.70
2023-03-11T04:26:01.844Z,0.80
2023-03-11T04:29:07.539Z,0.80
2023-03-11T04:32:18.306Z,0.60
2023-03-11T04:35:23.980Z,0.70
2023-03-11T04:38:29.984Z,0.90
2023-03-11T04:41:34.699Z,0.73
2023-03-11T04:44:42.791Z,0.90
2023-03-11T04:47:48.688Z,1.10
2023-03-11T04:50:55.491Z,1.10
2023-03-11T04:54:01.040Z,1.02
2023-03-11T04:57:07.717Z,0.90
2023-03-11T05:00:15.624Z,0.90
2023-03-11T05:03:24.155Z,1.02
2023-03-11T05:06:28.987Z,0.90
2023-03-11T05:09:35.281Z,0.88
2023-03-11T05:12:40.636Z,1.10
2023-03-11T05:15:46.807Z,0.90
2023-03-11T05:18:51.753Z,0.70
2023-03-11T05:21:56.836Z,0.73
2023-03-11T05:25:03.662Z,0.80
2023-03-11T05:28:08.336Z,0.70
2023-03-11T05:31:18.601Z,1.00
2023-03-11T05:34:24.330Z,0.75
2023-03-11T05:37:31.507Z,0.70
2023-03-11T05:40:37.477Z,0.73
2023-03-11T05:43:42.299Z,0.93
2023-03-11T05:46:47.156Z,0.90
2023-03-11T05:49:52.996Z,0.88
2023-03-11T05:52:58.648Z,0.63
2023-03-11T05:56:05.498Z,0.90
2023-03-11T05:59:12.866Z,0.90
2023-03-11T06:02:21.060Z,0.68
2023-03-11T06:05:26.837Z,1.48
2023-03-11T06:08:36.867Z,0.70
2023-03-11T06:11:42.608Z,0.80
2023-03-11T06:14:47.655Z,0.98
2023-03-11T06:17:52.538Z,0.85
2023-03-11T06:20:59.559Z,0.80
2023-03-11T06:24:04.394Z,0.70
2023-03-11T06:27:11.140Z,0.80
2023-03-11T06:30:19.669Z,0.90
2023-03-11T06:33:32.581Z,0.90
2023-03-11T06:36:37.955Z,1.48
2023-03-11T06:39:42.474Z,1.00
2023-03-11T06:42:50.736Z,0.90
2023-03-11T06:45:58.658Z,1.10
2023-03-11T06:49:03.730Z,1.00
2023-03-11T06:52:09.495Z,0.80
2023-03-11T06:55:14.168Z,0.90
2023-03-11T06:58:19.553Z,0.82
2023-03-11T07:01:26.347Z,1.20
2023-03-11T07:04:33.500Z,0.90
2023-03-11T07:07:38.143Z,1.00
2023-03-11T07:10:42.948Z,0.90
2023-03-11T07:13:47.748Z,1.00
2023-03-11T07:16:52.636Z,1.00
2023-03-11T07:20:09.424Z,0.82
2023-03-11T07:23:14.592Z,0.90
2023-03-11T07:26:19.221Z,0.90
2023-03-11T07:29:23.960Z,1.00
2023-03-11T07:32:28.633Z,0.70
2023-03-11T07:35:35.482Z,0.73
2023-03-11T07:38:41.795Z,0.85
2023-03-11T07:41:46.520Z,0.80
2023-03-11T07:44:51.809Z,0.85
2023-03-11T07:47:56.563Z,1.10
2023-03-11T07:51:13.478Z,1.10
2023-03-11T07:54:18.302Z,0.93
2023-03-11T07:57:22.928Z,0.80
2023-03-11T08:00:27.715Z,1.27
2023-03-11T08:03:33.584Z,0.90
2023-03-11T08:06:38.407Z,0.90
2023-03-11T08:09:43.176Z,0.70
2023-03-11T08:12:47.782Z,0.93
2023-03-11T08:15:52.613Z,1.05
2023-03-11T08:18:57.684Z,0.80
2023-03-11T08:22:03.682Z,1.20
2023-03-11T08:25:08.570Z,0.93
2023-03-11T08:28:13.138Z,0.80
2023-03-11T08:31:26.194Z,0.90
2023-03-11T08:34:30.783Z,0.93
2023-03-11T08:37:35.572Z,0.93
2023-03-11T08:40:40.370Z,0.70
2023-03-11T08:43:45.376Z,1.48
2023-03-11T08:46:50.055Z,0.77
2023-03-11T08:49:54.847Z,0.80
2023-03-11T08:53:03.251Z,0.98
2023-03-11T08:56:08.336Z,0.95
2023-03-11T08:59:13.404Z,0.73
2023-03-11T09:02:18.187Z,0.80
2023-03-11T09:05:22.848Z,0.80
2023-03-11T09:08:28.016Z,0.70
2023-03-11T09:11:32.679Z,0.80
2023-03-11T09:14:39.561Z,1.10
2023-03-11T09:17:44.353Z,0.88
2023-03-11T09:20:49.166Z,0.98
2023-03-11T09:23:53.756Z,0.93
2023-03-11T09:26:58.583Z,0.98
2023-03-11T09:30:03.738Z,1.08
2023-03-11T09:33:08.879Z,0.95
2023-03-11T09:36:16.138Z,1.00
2023-03-11T09:39:20.769Z,1.10
2023-03-11T09:42:41.598Z,0.90
2023-03-11T09:45:55.434Z,1.02
2023-03-11T09:49:19.641Z,0.70
2023-03-11T09:52:32.759Z,1.00
2023-03-11T09:55:47.887Z,0.85
2023-03-11T09:59:04.862Z,0.80
2023-03-11T10:02:15.629Z,1.00
2023-03-11T10:05:23.881Z,0.93
2023-03-11T10:08:34.175Z,1.00
2023-03-11T10:11:52.720Z,0.75
2023-03-11T10:15:22.255Z,1.00
2023-03-11T10:18:59.451Z,0.90
2023-03-11T10:22:17.411Z,0.80
2023-03-11T10:25:30.358Z,0.90
2023-03-11T10:28:51.242Z,1.00
2023-03-11T10:32:11.794Z,0.90
2023-03-11T10:35:18.473Z,0.80
2023-03-11T10:38:35.196Z,1.27
2023-03-11T10:41:49.607Z,1.10
2023-03-11T10:44:54.550Z,0.90
2023-03-11T10:47:59.307Z,0.88
2023-03-11T10:51:14.486Z,1.00
2023-03-11T10:54:31.389Z,0.90
2023-03-11T10:57:38.837Z,0.52
2023-03-11T11:00:43.653Z,1.10
2023-03-11T11:03:50.773Z,0.80
2023-03-11T11:06:55.639Z,0.60
2023-03-11T11:10:12.287Z,0.65
2023-03-11T11:13:22.457Z,0.80
2023-03-11T11:16:28.886Z,0.50
2023-03-11T11:19:33.705Z,0.70
2023-03-11T11:22:39.176Z,0.38
2023-03-11T11:25:54.439Z,0.45
2023-03-11T11:29:11.075Z,0.60
2023-03-11T11:32:17.031Z,0.93
2023-03-11T11:35:24.665Z,0.60
2023-03-11T11:38:30.996Z,0.63
2023-03-11T11:41:36.917Z,0.70
2023-03-11T11:44:43.717Z,0.70
2023-03-11T11:47:52.580Z,0.63
2023-03-11T11:51:02.870Z,0.70
2023-03-11T11:54:17.994Z,0.70
2023-03-11T11:57:23.883Z,0.65
2023-03-11T12:00:37.880Z,0.80
2023-03-11T12:03:51.547Z,0.90
2023-03-11T12:07:14.707Z,0.50
2023-03-11T12:13:50.509Z,0.60
2023-03-11T12:17:03.866Z,0.40
2023-03-11T12:20:33.023Z,0.50
2023-03-11T12:23:59.272Z,0.70
2023-03-11T12:27:15.446Z,0.50
2023-03-11T12:30:33.477Z,0.90
2023-03-11T12:33:41.240Z,0.52
2023-03-11T12:36:48.213Z,0.63
2023-03-11T12:39:52.947Z,1.30
2023-03-11T12:42:57.532Z,0.85
2023-03-11T12:46:10.484Z,0.60
2023-03-11T12:49:15.290Z,0.70
2023-03-11T12:52:26.552Z,0.80
2023-03-11T12:55:34.201Z,0.80
2023-03-11T12:59:12.913Z,0.80
2023-03-11T13:02:28.939Z,0.90
2023-03-11T13:06:00.446Z,0.80
2023-03-11T13:09:05.209Z,0.80
2023-03-11T13:12:39.529Z,0.80
2023-03-11T13:15:44.338Z,0.77
2023-03-11T13:18:51.789Z,0.98
2023-03-11T13:21:59.730Z,0.80
2023-03-11T13:25:25.464Z,1.75
2023-03-11T13:28:51.304Z,0.70
2023-03-11T13:32:27.858Z,0.68
2023-03-11T13:36:00.141Z,0.90
2023-03-11T13:39:26.384Z,0.60
2023-03-11T13:42:51.661Z,0.60
2023-03-11T13:46:20.593Z,0.63
2023-03-11T13:49:34.845Z,0.90
2023-03-11T13:52:47.702Z,0.65
2023-03-11T13:55:52.896Z,0.85
2023-03-11T13:59:17.762Z,0.75
2023-03-11T14:02:28.578Z,0.70
2023-03-11T14:05:36.052Z,0.80
2023-03-11T14:08:41.828Z,0.75
2023-03-11T14:11:48.823Z,0.77
2023-03-11T14:14:59.899Z,0.90
2023-03-11T14:18:26.205Z,1.10
2023-03-11T14:21:31.957Z,0.90
2023-03-11T14:24:38.530Z,0.88
2023-03-11T14:27:50.678Z,0.70
2023-03-11T14:31:00.714Z,0.80
2023-03-11T14:34:15.219Z,0.80
2023-03-11T14:37:30.403Z,1.67
2023-03-11T14:40:42.160Z,0.75
2023-03-11T14:43:51.798Z,0.90
2023-03-11T14:47:08.441Z,0.90
2023-03-11T14:50:17.759Z,0.73
2023-03-11T14:53:28.379Z,0.85
2023-03-11T14:56:37.259Z,1.00
2023-03-11T14:59:43.625Z,0.70
2023-03-11T15:03:12.789Z,0.90
2023-03-11T15:06:20.923Z,1.10
2023-03-11T15:09:27.193Z,1.00
2023-03-11T15:12:39.930Z,1.23
2023-03-11T15:15:45.947Z,0.93
2023-03-11T15:18:50.587Z,0.93
2023-03-11T15:21:59.490Z,1.15
2023-03-11T15:25:16.132Z,0.70
2023-03-11T15:28:32.489Z,1.23
2023-03-11T15:31:39.609Z,0.77
2023-03-11T15:34:44.275Z,1.10
2023-03-11T15:37:51.760Z,1.10
2023-03-11T15:41:02.299Z,0.88
2023-03-11T15:44:32.135Z,0.90
2023-03-11T15:47:37.369Z,1.00
2023-03-11T15:50:53.981Z,1.17
2023-03-11T15:53:58.921Z,1.05
2023-03-11T15:57:07.459Z,1.00
2023-03-11T16:00:19.478Z,1.35
2023-03-11T16:03:24.268Z,0.83
2023-03-11T16:06:28.839Z,0.93
2023-03-11T16:09:34.206Z,1.10
2023-03-11T16:12:39.750Z,1.08
2023-03-11T16:15:47.074Z,1.60
2023-03-11T16:18:52.450Z,1.10
2023-03-11T16:21:57.042Z,1.35
2023-03-11T16:25:03.108Z,1.17
2023-03-11T16:28:07.931Z,0.98
2023-03-11T16:31:12.755Z,1.55
2023-03-11T16:34:17.780Z,1.38
2023-03-11T16:37:22.517Z,1.25
2023-03-11T16:40:29.064Z,1.30
2023-03-11T16:43:33.675Z,1.05
2023-03-11T16:46:38.715Z,1.00
2023-03-11T16:49:43.346Z,1.08
2023-03-11T16:52:48.246Z,1.10
2023-03-11T16:55:53.422Z,1.20
2023-03-11T16:58:57.987Z,1.10
2023-03-11T17:02:02.783Z,1.30
2023-03-11T17:05:08.817Z,1.33
2023-03-11T17:08:13.546Z,1.27
2023-03-11T17:11:21.128Z,0.80
2023-03-11T17:14:26.187Z,0.80
2023-03-11T17:17:30.845Z,1.02
2023-03-11T17:20:37.181Z,1.50
2023-03-11T17:23:42.574Z,0.85
2023-03-11T17:26:47.145Z,1.30
2023-03-11T17:29:55.085Z,1.10
2023-03-11T17:32:59.933Z,1.30
2023-03-11T17:36:06.948Z,1.45
2023-03-11T17:39:11.495Z,2.60
2023-03-11T17:42:16.263Z,1.60
2023-03-11T17:45:21.094Z,3.17
2023-03-11T17:48:25.669Z,1.80
2023-03-11T17:51:30.204Z,1.30
2023-03-11T17:54:35.121Z,1.40
2023-03-11T17:57:45.370Z,1.20
2023-03-11T18:00:50.892Z,1.23
2023-03-11T18:03:55.614Z,1.20
2023-03-11T18:07:00.356Z,2.08
2023-03-11T18:10:05.957Z,1.00
2023-03-11T18:13:10.637Z,1.00
2023-03-11T18:16:18.453Z,1.08
2023-03-11T18:19:23.203Z,1.60
2023-03-11T18:22:28.029Z,1.20
2023-03-11T18:25:32.772Z,1.35
2023-03-11T18:28:37.700Z,1.58
2023-03-11T18:31:42.508Z,3.13
2023-03-11T18:34:51.231Z,2.30
2023-03-11T18:37:56.046Z,2.45
2023-03-11T18:41:00.580Z,1.92
2023-03-11T18:44:05.733Z,1.52
2023-03-11T18:47:10.414Z,1.40
2023-03-11T18:50:14.954Z,1.38
2023-03-11T18:53:21.377Z,1.50
2023-03-11T18:56:26.943Z,1.75
2023-03-11T18:59:31.537Z,1.20
2023-03-11T19:02:36.296Z,1.30
2023-03-11T19:05:50.788Z,1.10
2023-03-11T19:08:57.117Z,1.30
2023-03-11T19:12:01.940Z,1.38
2023-03-11T19:15:07.131Z,1.20
2023-03-11T19:18:13.025Z,1.13
2023-03-11T19:21:18.134Z,1.42
2023-03-11T19:24:23.266Z,1.90
2023-03-11T19:27:28.138Z,2.28
2023-03-11T19:30:32.865Z,1.65
2023-03-11T19:33:37.518Z,1.88
2023-03-11T19:36:42.229Z,2.05
2023-03-11T19:39:46.803Z,1.67
2023-03-11T19:42:53.198Z,1.63
2023-03-11T19:45:57.937Z,1.30
2023-03-11T19:49:03.449Z,1.35
2023-03-11T19:52:09.794Z,1.50
2023-03-11T19:55:14.824Z,1.52
2023-03-11T19:58:20.742Z,1.30
2023-03-11T20:01:30.269Z,1.60
2023-03-11T20:04:34.954Z,1.80
2023-03-11T20:07:39.642Z,1.55
2023-03-11T20:10:47.165Z,1.20
2023-03-11T20:13:51.833Z,1.63
2023-03-11T20:16:56.369Z,1.40
2023-03-11T20:20:00.908Z,1.67
2023-03-11T20:23:06.035Z,1.75
2023-03-11T20:26:13.648Z,1.98
2023-03-11T20:29:18.860Z,3.15
2023-03-11T20:32:23.527Z,2.88
2023-03-11T20:35:28.132Z,1.80
2023-03-11T20:38:33.070Z,2.25
2023-03-11T20:41:39.955Z,2.28
2023-03-11T20:44:44.621Z,2.45
2023-03-11T20:47:53.366Z,1.73
2023-03-11T20:51:07.611Z,1.80
2023-03-11T20:54:13.999Z,2.38
2023-03-11T20:57:18.548Z,2.90
2023-03-11T21:00:23.214Z,2.88
2023-03-11T21:03:27.878Z,3.38
2023-03-11T21:06:36.230Z,3.17
2023-03-11T21:09:40.932Z,3.63
2023-03-11T21:12:47.077Z,3.88
2023-03-11T21:15:54.193Z,3.70
2023-03-11T21:18:58.964Z,4.32
2023-03-11T21:22:04.385Z,4.57
2023-03-11T21:25:09.137Z,3.78
2023-03-11T21:28:14.097Z,3.78
2023-03-11T21:31:20.010Z,3.90
2023-03-11T21:34:24.653Z,3.50
2023-03-11T21:37:29.625Z,2.72
2023-03-11T21:40:34.153Z,2.92
2023-03-11T21:43:40.162Z,2.67
2023-03-11T21:46:44.831Z,3.00
2023-03-11T21:49:49.604Z,2.15
2023-03-11T21:52:54.107Z,2.35
2023-03-11T21:55:59.700Z,2.30
2023-03-11T21:59:04.868Z,2.33
2023-03-11T22:02:14.851Z,2.20
2023-03-11T22:05:19.548Z,2.33
2023-03-11T22:08:24.922Z,2.40
2023-03-11T22:11:29.873Z,2.00
2023-03-11T22:14:34.346Z,2.33
2023-03-11T22:17:39.108Z,2.50
2023-03-11T22:20:44.027Z,2.10
2023-03-11T22:23:49.177Z,2.83
2023-03-11T22:26:53.717Z,2.85
2023-03-11T22:29:58.292Z,2.90
2023-03-11T22:33:03.920Z,2.95
2023-03-11T22:36:09.396Z,2.70
2023-03-11T22:39:14.081Z,2.67
2023-03-11T22:42:18.919Z,3.20
2023-03-11T22:45:23.455Z,3.38
2023-03-11T22:48:28.978Z,3.70
2023-03-11T22:51:33.478Z,2.40
2023-03-11T22:54:39.964Z,3.40
2023-03-11T22:57:44.566Z,3.67
2023-03-11T23:00:49.221Z,3.20
2023-03-11T23:03:53.855Z,2.97
2023-03-11T23:06:58.417Z,3.10
2023-03-11T23:10:03.622Z,2.50
2023-03-11T23:13:10.156Z,2.60
2023-03-11T23:16:17.494Z,2.70
2023-03-11T23:19:22.009Z,2.92
2023-03-11T23:22:26.812Z,2.60
2023-03-11T23:25:31.819Z,3.00
2023-03-11T23:28:36.383Z,3.45
2023-03-11T23:31:42.115Z,2.47
2023-03-11T23:34:46.658Z,3.42
2023-03-11T23:37:51.248Z,3.05
2023-03-11T23:40:56.099Z,4.68
2023-03-11T23:44:00.621Z,4.07
2023-03-11T23:47:05.468Z,3.67
2023-03-11T23:50:10.497Z,3.35
2023-03-11T23:53:17.913Z,5.07
2023-03-11T23:56:22.485Z,7.55
2023-03-11T23:59:27.033Z,6.88
